createdAt,value
2019-05-10T00:00:23.352Z,91.9
2019-05-10T00:01:37.602Z,91.8
2019-05-10T00:02:51.958Z,92.1
2019-05-10T00:04:05.913Z,92
2019-05-10T00:05:20.103Z,91.8
2019-05-10T00:06:34.335Z,92.5
2019-05-10T00:07:48.518Z,92.6
2019-05-10T00:09:02.758Z,92.7
2019-05-10T00:10:16.837Z,93.1
2019-05-10T00:11:31.159Z,92.2
2019-05-10T00:12:45.197Z,92.8
2019-05-10T00:13:59.413Z,92.5
2019-05-10T00:15:13.588Z,93.1
2019-05-10T00:16:27.949Z,91.8
2019-05-10T00:17:41.944Z,92.4
2019-05-10T00:18:56.127Z,92.7
2019-05-10T00:20:10.322Z,94
2019-05-10T00:21:24.501Z,93.5
2019-05-10T00:22:38.728Z,94
2019-05-10T00:23:52.952Z,93.1
2019-05-10T00:25:07.168Z,93.3
2019-05-10T00:26:21.429Z,93.2
2019-05-10T00:27:35.571Z,93
2019-05-10T00:28:49.610Z,93.9
2019-05-10T00:30:03.846Z,93.2
2019-05-10T00:31:18.027Z,93
2019-05-10T00:32:32.201Z,92.7
2019-05-10T00:33:46.352Z,93.4
2019-05-10T00:35:00.529Z,93.4
2019-05-10T00:36:14.798Z,93.3
2019-05-10T00:37:29.288Z,93.5
2019-05-10T00:38:43.140Z,93
2019-05-10T00:39:57.294Z,93
2019-05-10T00:41:11.538Z,93.1
2019-05-10T00:42:25.684Z,92
2019-05-10T00:43:39.815Z,93
2019-05-10T00:44:54.011Z,91.9
2019-05-10T00:46:08.181Z,92.5
2019-05-10T00:47:22.456Z,92.4
2019-05-10T00:48:37.111Z,91.7
2019-05-10T00:49:50.740Z,92.4
2019-05-10T00:51:04.908Z,90.5
2019-05-10T00:52:19.214Z,90
2019-05-10T00:53:33.267Z,90.1
2019-05-10T00:54:47.508Z,90.5
2019-05-10T00:56:01.698Z,90.9
2019-05-10T00:57:15.924Z,89.8
2019-05-10T00:58:30.046Z,89.1
2019-05-10T00:59:44.368Z,89.5
2019-05-10T01:00:58.406Z,90.3
2019-05-10T01:02:12.692Z,90.8
2019-05-10T01:03:26.763Z,91.2
2019-05-10T01:04:41.005Z,90.3
2019-05-10T01:05:55.195Z,90.8
2019-05-10T01:07:09.517Z,91.3
2019-05-10T01:08:23.687Z,91.3
2019-05-10T01:09:37.910Z,92.1
2019-05-10T01:12:06.282Z,92.2
2019-05-10T01:13:20.322Z,93.1
2019-05-10T01:14:34.574Z,92.2
2019-05-10T01:15:48.724Z,92.5
2019-05-10T01:17:03.063Z,93
2019-05-10T01:18:17.098Z,92.2
2019-05-10T01:19:31.287Z,92.9
2019-05-10T01:20:45.681Z,92.9
2019-05-10T01:21:59.816Z,92.9
2019-05-10T01:23:13.879Z,93.4
2019-05-10T01:24:28.077Z,93.3
2019-05-10T01:25:42.259Z,93.2
2019-05-10T01:26:56.460Z,93.4
2019-05-10T01:28:10.679Z,93
2019-05-10T01:29:24.907Z,93.2
2019-05-10T01:30:39.141Z,92.8
2019-05-10T01:31:53.395Z,91.9
2019-05-10T01:33:07.599Z,91.9
2019-05-10T01:34:21.893Z,91.4
2019-05-10T01:35:35.869Z,92
2019-05-10T01:36:50.198Z,92.5
2019-05-10T01:38:04.286Z,92.1
2019-05-10T01:39:18.521Z,92
2019-05-10T01:40:34.056Z,91.9
2019-05-10T01:41:46.846Z,92.4
2019-05-10T01:43:01.048Z,92.3
2019-05-10T01:44:15.238Z,91.4
2019-05-10T01:45:29.620Z,91.2
2019-05-10T01:46:43.857Z,90.6
2019-05-10T01:47:57.818Z,90.3
2019-05-10T01:49:12.049Z,91
2019-05-10T01:50:26.206Z,91.2
2019-05-10T01:51:40.522Z,91.2
2019-05-10T01:52:54.640Z,91.7
2019-05-10T01:54:13.581Z,91.8
2019-05-10T01:55:23.055Z,91.9
2019-05-10T01:56:37.217Z,90.8
2019-05-10T01:57:51.510Z,92
2019-05-10T01:59:05.622Z,91.8
2019-05-10T02:00:19.895Z,91.9
2019-05-10T02:01:34.025Z,91
2019-05-10T02:02:48.320Z,91.3
2019-05-10T02:04:02.507Z,91
2019-05-10T02:05:16.705Z,90.5
2019-05-10T02:06:30.853Z,90.6
2019-05-10T02:07:45.067Z,90.7
2019-05-10T02:08:59.219Z,90
2019-05-10T02:10:17.125Z,90.5
2019-05-10T02:11:27.657Z,89.9
2019-05-10T02:12:41.782Z,90.8
2019-05-10T02:13:55.974Z,90.1
2019-05-10T02:15:10.238Z,90.4
2019-05-10T02:16:24.399Z,89.2
2019-05-10T02:17:38.630Z,89.6
2019-05-10T02:18:52.829Z,89.1
2019-05-10T02:20:06.972Z,90
2019-05-10T02:21:21.151Z,89.6
2019-05-10T02:22:35.434Z,89.2
2019-05-10T02:23:49.532Z,90.1
2019-05-10T02:25:03.971Z,89.1
2019-05-10T02:26:17.922Z,90.1
2019-05-10T02:27:32.118Z,90.3
2019-05-10T02:28:46.471Z,91.2
2019-05-10T02:30:00.507Z,91.7
2019-05-10T02:31:14.690Z,92.2
2019-05-10T02:32:28.928Z,92.5
2019-05-10T02:33:43.096Z,92.8
2019-05-10T02:34:57.276Z,93.9
2019-05-10T02:36:11.539Z,94.6
2019-05-10T02:37:25.873Z,93.8
2019-05-10T02:38:40.000Z,94.7
2019-05-10T02:39:54.846Z,94.5
2019-05-10T02:41:08.219Z,95
2019-05-10T02:42:22.388Z,94.9
2019-05-10T02:43:38.381Z,95.3
2019-05-10T02:44:50.846Z,96.3
2019-05-10T02:46:06.614Z,96
2019-05-10T02:47:19.897Z,96.5
2019-05-10T02:48:33.351Z,96.5
2019-05-10T02:49:47.478Z,96.6
2019-05-10T02:51:01.670Z,97.3
2019-05-10T02:52:15.851Z,97.6
2019-05-10T02:54:44.264Z,97.7
2019-05-10T02:55:58.418Z,98.2
2019-05-10T02:57:12.613Z,98
2019-05-10T02:58:26.801Z,98
2019-05-10T02:59:41.200Z,98.1
2019-05-10T03:00:55.302Z,98.1
2019-05-10T03:02:09.593Z,98.3
2019-05-10T03:03:23.583Z,98.4
2019-05-10T03:04:37.835Z,98.5
2019-05-10T03:07:06.162Z,99.1
2019-05-10T03:08:20.408Z,99.2
2019-05-10T03:09:34.666Z,99.1
2019-05-10T03:10:48.731Z,99.5
2019-05-10T03:12:02.944Z,99.3
2019-05-10T03:13:17.089Z,99.5
2019-05-10T03:14:31.331Z,99.5
2019-05-10T03:15:45.557Z,99.5
2019-05-10T03:16:59.687Z,99.5
2019-05-10T03:18:13.880Z,100
2019-05-10T03:19:28.065Z,99.8
2019-05-10T03:20:42.352Z,99.9
2019-05-10T03:21:56.518Z,99.7
2019-05-10T03:23:10.681Z,100
2019-05-10T03:24:24.900Z,100
2019-05-10T03:25:39.071Z,100
2019-05-10T03:26:53.281Z,100
2019-05-10T03:28:07.563Z,100
2019-05-10T03:29:21.678Z,100
2019-05-10T03:31:49.986Z,100
2019-05-10T03:33:04.237Z,100
2019-05-10T03:34:18.413Z,100
2019-05-10T03:35:32.568Z,100
2019-05-10T03:36:46.793Z,100
2019-05-10T03:38:00.921Z,100
2019-05-10T03:39:15.199Z,100
2019-05-10T03:40:29.386Z,100
2019-05-10T03:41:43.497Z,100
2019-05-10T03:42:57.761Z,100
2019-05-10T03:44:11.936Z,100
2019-05-10T03:46:40.258Z,100
2019-05-10T03:47:54.573Z,100
2019-05-10T03:49:08.943Z,100
2019-05-10T03:50:22.846Z,100
2019-05-10T03:51:37.099Z,100
2019-05-10T03:52:51.205Z,100
2019-05-10T03:54:05.369Z,100
2019-05-10T03:56:33.742Z,100
2019-05-10T03:57:48.001Z,100
2019-05-10T03:59:02.306Z,100
2019-05-10T04:00:16.448Z,100
2019-05-10T04:01:30.704Z,100
2019-05-10T04:02:44.718Z,100
2019-05-10T04:03:58.910Z,100
2019-05-10T04:05:13.146Z,100
2019-05-10T04:06:27.329Z,100
2019-05-10T04:07:41.740Z,100
2019-05-10T04:08:56.039Z,100
2019-05-10T04:11:24.119Z,100
2019-05-10T04:12:38.332Z,100
2019-05-10T04:13:52.541Z,100
2019-05-10T04:15:06.817Z,100
2019-05-10T04:16:20.985Z,100
2019-05-10T04:17:35.093Z,100
2019-05-10T04:18:49.293Z,100
2019-05-10T04:20:03.482Z,100
2019-05-10T04:21:17.692Z,100
2019-05-10T04:22:31.849Z,100
2019-05-10T04:23:46.163Z,100
2019-05-10T04:25:00.220Z,100
2019-05-10T04:26:14.424Z,100
2019-05-10T04:27:28.672Z,100
2019-05-10T04:28:42.847Z,100
2019-05-10T04:29:57.105Z,100
2019-05-10T04:31:11.963Z,100
2019-05-10T04:32:25.416Z,100
2019-05-10T04:33:39.722Z,100
2019-05-10T04:34:55.951Z,100
2019-05-10T04:36:08.015Z,100
2019-05-10T04:37:22.203Z,100
2019-05-10T04:38:36.520Z,100
2019-05-10T04:39:52.123Z,100
2019-05-10T04:41:05.361Z,100
2019-05-10T04:42:18.976Z,100
2019-05-10T04:43:33.273Z,100
2019-05-10T04:44:47.369Z,100
2019-05-10T04:46:01.557Z,100
2019-05-10T04:47:15.766Z,100
2019-05-10T04:48:30.032Z,100
2019-05-10T04:49:44.138Z,100
2019-05-10T04:52:12.627Z,100
2019-05-10T04:53:26.799Z,100
2019-05-10T04:54:41.105Z,100
2019-05-10T04:55:55.376Z,100
2019-05-10T04:57:09.359Z,100
2019-05-10T04:58:23.555Z,100
2019-05-10T04:59:39.511Z,100
2019-05-10T05:00:51.944Z,100
2019-05-10T05:02:06.156Z,100
2019-05-10T05:03:20.344Z,100
2019-05-10T05:04:34.561Z,100
2019-05-10T05:05:48.730Z,100
2019-05-10T05:07:02.943Z,100
2019-05-10T05:08:17.157Z,100
2019-05-10T05:09:31.516Z,100
2019-05-10T05:10:46.633Z,100
2019-05-10T05:11:59.674Z,100
2019-05-10T05:13:19.446Z,100
2019-05-10T05:14:28.129Z,100
2019-05-10T05:15:43.125Z,100
2019-05-10T05:16:56.512Z,100
2019-05-10T05:18:10.661Z,100
2019-05-10T05:19:24.907Z,100
2019-05-10T05:20:39.181Z,100
2019-05-10T05:21:53.279Z,100
2019-05-10T05:24:21.736Z,99.9
2019-05-10T05:25:35.982Z,98.9
2019-05-10T05:26:50.067Z,99
2019-05-10T05:28:04.395Z,99.2
2019-05-10T05:29:18.561Z,98.3
2019-05-10T05:30:32.609Z,99
2019-05-10T05:31:46.866Z,99
2019-05-10T05:33:01.104Z,99.2
2019-05-10T05:34:15.219Z,98.8
2019-05-10T05:35:29.410Z,99.2
2019-05-10T05:36:43.641Z,98.8
2019-05-10T05:37:57.866Z,99
2019-05-10T05:39:12.211Z,99.2
2019-05-10T05:40:26.831Z,99
2019-05-10T05:41:40.537Z,98.4
2019-05-10T05:42:54.626Z,99.1
2019-05-10T05:44:09.096Z,99.2
2019-05-10T05:45:23.103Z,98.3
2019-05-10T05:46:37.225Z,98.5
2019-05-10T05:47:51.361Z,97.8
2019-05-10T05:49:05.570Z,97.8
2019-05-10T05:50:19.816Z,98
2019-05-10T05:52:48.244Z,97.9
2019-05-10T05:54:02.313Z,98
2019-05-10T05:55:16.485Z,97.7
2019-05-10T05:56:30.711Z,97.9
2019-05-10T05:57:44.912Z,97.7
2019-05-10T05:58:59.108Z,97.7
2019-05-10T06:00:15.501Z,96.7
2019-05-10T06:01:30.012Z,96.7
2019-05-10T06:02:41.716Z,96.6
2019-05-10T06:03:55.905Z,96.4
2019-05-10T06:05:10.072Z,96.3
2019-05-10T06:06:24.262Z,96.3
2019-05-10T06:07:38.402Z,95.9
2019-05-10T06:08:52.515Z,96
2019-05-10T06:10:10.574Z,94.8
2019-05-10T06:11:20.921Z,95.5
2019-05-10T06:12:35.138Z,94.1
2019-05-10T06:13:49.200Z,94.2
2019-05-10T06:15:03.511Z,94.1
2019-05-10T06:16:17.549Z,94.3
2019-05-10T06:17:31.813Z,94.6
2019-05-10T06:18:45.909Z,94.6
2019-05-10T06:20:00.180Z,93.5
2019-05-10T06:21:14.311Z,92.2
2019-05-10T06:22:28.520Z,93.2
2019-05-10T06:23:42.775Z,93.7
2019-05-10T06:24:56.882Z,93.4
2019-05-10T06:26:10.945Z,93.2
2019-05-10T06:27:25.096Z,92.7
2019-05-10T06:28:40.632Z,92.9
2019-05-10T06:29:54.583Z,94.9
2019-05-10T06:31:07.684Z,94.8
2019-05-10T06:32:21.892Z,94
2019-05-10T06:33:35.989Z,93.9
2019-05-10T06:34:50.162Z,94.2
2019-05-10T06:36:04.471Z,94.9
2019-05-10T06:37:18.597Z,95
2019-05-10T06:38:32.718Z,94
2019-05-10T06:41:01.376Z,95.1
2019-05-10T06:42:15.253Z,95.1
2019-05-10T06:43:29.486Z,94.4
2019-05-10T06:44:43.584Z,94.3
2019-05-10T06:45:57.782Z,94.6
2019-05-10T06:47:12.263Z,94.2
2019-05-10T06:48:26.156Z,94.1
2019-05-10T06:49:40.367Z,93.3
2019-05-10T06:50:54.510Z,93.8
2019-05-10T06:52:08.630Z,94.2
2019-05-10T06:53:22.947Z,93.4
2019-05-10T06:54:37.028Z,90.3
2019-05-10T06:55:52.198Z,90.4
2019-05-10T06:57:05.998Z,90.4
2019-05-10T06:59:34.564Z,87.3
2019-05-10T07:00:47.826Z,87.1
2019-05-10T07:02:01.999Z,88.1
2019-05-10T07:03:16.227Z,86
2019-05-10T07:04:30.402Z,80.2
2019-05-10T07:05:45.276Z,77.2
2019-05-10T07:06:58.638Z,76.2
2019-05-10T07:08:12.792Z,76.9
2019-05-10T07:09:26.927Z,77.1
2019-05-10T07:10:41.209Z,77
2019-05-10T07:11:55.206Z,76.3
2019-05-10T07:13:09.449Z,77.3
2019-05-10T07:14:23.518Z,78.1
2019-05-10T07:15:37.734Z,79.6
2019-05-10T07:18:05.931Z,81.2
2019-05-10T07:19:20.079Z,81.3
2019-05-10T07:20:34.250Z,80.9
2019-05-10T07:21:48.395Z,81.5
2019-05-10T07:23:02.670Z,84.2
2019-05-10T07:24:16.710Z,81.3
2019-05-10T07:25:30.861Z,80.5
2019-05-10T07:26:45.010Z,81.5
2019-05-10T07:27:59.205Z,79.6
2019-05-10T07:29:13.406Z,77.5
2019-05-10T07:30:27.478Z,78.3
2019-05-10T07:31:41.623Z,76.9
2019-05-10T07:32:55.777Z,75.8
2019-05-10T07:34:10.069Z,77.6
2019-05-10T07:35:24.239Z,75.5
2019-05-10T07:36:38.580Z,72.3
2019-05-10T07:37:52.441Z,74.3
2019-05-10T07:39:06.629Z,73.3
2019-05-10T07:40:23.315Z,76
2019-05-10T07:41:34.716Z,74.6
2019-05-10T07:42:48.854Z,72.5
2019-05-10T07:44:03.055Z,74.8
2019-05-10T07:45:17.325Z,74.5
2019-05-10T07:46:36.994Z,74.4
2019-05-10T07:47:50.388Z,76
2019-05-10T07:48:59.596Z,76.3
2019-05-10T07:50:13.752Z,75.3
2019-05-10T07:51:28.641Z,77.6
2019-05-10T07:52:42.077Z,77
2019-05-10T07:53:56.074Z,77.1
2019-05-10T07:55:10.396Z,79.6
2019-05-10T07:56:24.405Z,77.1
2019-05-10T07:57:38.538Z,78.6
2019-05-10T07:58:52.705Z,76.5
2019-05-10T08:00:06.911Z,74.6
2019-05-10T08:01:20.943Z,72.7
2019-05-10T08:02:35.106Z,72.1
2019-05-10T08:03:49.212Z,75.9
2019-05-10T08:05:03.341Z,72.4
2019-05-10T08:06:17.474Z,73.5
2019-05-10T08:07:31.567Z,71.4
2019-05-10T08:08:45.725Z,73.3
2019-05-10T08:09:59.832Z,74.7
2019-05-10T08:11:13.973Z,77.9
2019-05-10T08:12:28.146Z,76
2019-05-10T08:13:42.385Z,77.4
2019-05-10T08:16:10.714Z,78
2019-05-10T08:17:24.827Z,79.8
2019-05-10T08:18:38.947Z,80.9
2019-05-10T08:19:53.042Z,80.1
2019-05-10T08:21:07.269Z,81.9
2019-05-10T08:22:21.356Z,81.4
2019-05-10T08:23:35.504Z,83.1
2019-05-10T08:24:49.686Z,81
2019-05-10T08:26:03.835Z,81.2
2019-05-10T08:27:18.135Z,81.9
2019-05-10T08:28:32.237Z,81
2019-05-10T08:29:46.367Z,82.1
2019-05-10T08:31:00.674Z,81.1
2019-05-10T08:32:14.664Z,81.5
2019-05-10T08:33:28.815Z,81.3
2019-05-10T08:34:43.023Z,80.2
2019-05-10T08:35:57.297Z,80.3
2019-05-10T08:37:11.492Z,79.3
2019-05-10T08:38:25.498Z,79.8
2019-05-10T08:39:39.876Z,80.2
2019-05-10T08:40:53.943Z,78.4
2019-05-10T08:42:08.548Z,80.4
2019-05-10T08:43:23.071Z,79.4
2019-05-10T08:44:36.542Z,78.1
2019-05-10T08:45:50.557Z,79.8
2019-05-10T08:47:04.678Z,78.3
2019-05-10T08:48:18.822Z,77.2
2019-05-10T08:49:32.969Z,76.3
2019-05-10T08:50:47.287Z,75.4
2019-05-10T08:52:01.342Z,77.4
2019-05-10T08:53:15.392Z,74.8
2019-05-10T08:54:29.782Z,74.4
2019-05-10T08:55:43.949Z,73.6
2019-05-10T08:56:58.239Z,72.4
2019-05-10T08:58:12.087Z,72.9
2019-05-10T08:59:26.228Z,72.4
2019-05-10T09:00:40.315Z,71.6
2019-05-10T09:01:54.476Z,72.1
2019-05-10T09:03:08.622Z,72.5
2019-05-10T09:04:22.761Z,70.5
2019-05-10T09:05:36.958Z,71.2
2019-05-10T09:06:51.017Z,72.6
2019-05-10T09:08:05.162Z,72.6
2019-05-10T09:09:19.284Z,74.6
2019-05-10T09:10:42.999Z,73.5
2019-05-10T09:11:47.668Z,73.1
2019-05-10T09:13:01.965Z,73.5
2019-05-10T09:14:15.966Z,75.5
2019-05-10T09:15:30.005Z,75.9
2019-05-10T09:16:44.149Z,73.2
2019-05-10T09:17:58.284Z,74.5
2019-05-10T09:19:12.533Z,75
2019-05-10T09:20:26.665Z,74.4
2019-05-10T09:21:41.397Z,73
2019-05-10T09:22:54.877Z,72
2019-05-10T09:24:09.019Z,72.3
2019-05-10T09:25:23.153Z,70.3
2019-05-10T09:26:37.613Z,71.5
2019-05-10T09:27:51.710Z,72.1
2019-05-10T09:29:05.605Z,71.4
2019-05-10T09:30:19.793Z,70.7
2019-05-10T09:31:33.947Z,68.8
2019-05-10T09:32:47.999Z,69
2019-05-10T09:34:02.174Z,69.4
2019-05-10T09:35:16.278Z,68.6
2019-05-10T09:36:30.458Z,69
2019-05-10T09:37:44.557Z,67
2019-05-10T09:38:58.721Z,66
2019-05-10T09:40:16.462Z,66.5
2019-05-10T09:41:27.529Z,68.4
2019-05-10T09:42:41.038Z,66.2
2019-05-10T09:43:55.195Z,68.3
2019-05-10T09:45:09.786Z,67.8
2019-05-10T09:47:37.752Z,67.5
2019-05-10T09:48:51.836Z,69.2
2019-05-10T09:50:05.801Z,68.3
2019-05-10T09:51:19.930Z,69
2019-05-10T09:52:34.077Z,68.2
2019-05-10T09:53:48.213Z,68.2
2019-05-10T09:55:02.331Z,67.8
2019-05-10T09:56:16.548Z,68.2
2019-05-10T09:57:35.293Z,68.8
2019-05-10T09:58:44.662Z,67.7
2019-05-10T09:59:58.800Z,66.6
2019-05-10T10:01:12.973Z,67.7
2019-05-10T10:02:27.037Z,69.6
2019-05-10T10:03:41.248Z,69.6
2019-05-10T10:04:55.367Z,69.2
2019-05-10T10:06:09.464Z,69.4
2019-05-10T10:07:23.499Z,72.2
2019-05-10T10:08:37.693Z,69.4
2019-05-10T10:09:52.173Z,71.5
2019-05-10T10:11:05.881Z,73.1
2019-05-10T10:12:20.056Z,71.8
2019-05-10T10:13:34.155Z,73
2019-05-10T10:14:48.374Z,73.3
2019-05-10T10:16:02.453Z,73.6
2019-05-10T10:17:16.541Z,73.1
2019-05-10T10:18:30.746Z,72
2019-05-10T10:19:44.900Z,72.6
2019-05-10T10:20:58.925Z,72.2
2019-05-10T10:22:13.111Z,71.9
2019-05-10T10:23:27.233Z,71.1
2019-05-10T10:24:41.378Z,71.4
2019-05-10T10:25:55.614Z,71.8
2019-05-10T10:27:09.687Z,70.7
2019-05-10T10:28:23.773Z,70.6
2019-05-10T10:29:37.942Z,70.7
2019-05-10T10:30:52.229Z,69.8
2019-05-10T10:32:06.167Z,71
2019-05-10T10:33:20.357Z,71.3
2019-05-10T10:34:34.449Z,72.1
2019-05-10T10:35:48.608Z,72.2
2019-05-10T10:37:02.721Z,73.4
2019-05-10T10:38:17.040Z,72.4
2019-05-10T10:39:30.995Z,71.5
2019-05-10T10:40:46.199Z,71.8
2019-05-10T10:41:59.387Z,70.8
2019-05-10T10:43:13.411Z,71
2019-05-10T10:44:27.551Z,69.2
2019-05-10T10:45:41.736Z,70.1
2019-05-10T10:46:55.839Z,68.9
2019-05-10T10:48:09.990Z,68.8
2019-05-10T10:49:24.189Z,70.2
2019-05-10T10:50:38.274Z,69.3
2019-05-10T10:51:52.355Z,70.4
2019-05-10T10:53:06.562Z,68.8
2019-05-10T10:54:20.613Z,71.4
2019-05-10T10:55:34.935Z,71.2
2019-05-10T10:56:49.046Z,68.7
2019-05-10T10:58:02.954Z,69.1
2019-05-10T10:59:17.115Z,70.4
2019-05-10T11:00:31.302Z,71.8
2019-05-10T11:01:45.447Z,72.2
2019-05-10T11:02:59.510Z,72.5
2019-05-10T11:04:13.801Z,73.2
2019-05-10T11:05:27.879Z,71.9
2019-05-10T11:06:41.952Z,73
2019-05-10T11:07:56.110Z,72.2
2019-05-10T11:09:10.284Z,74
2019-05-10T11:10:24.956Z,72.5
2019-05-10T11:11:38.567Z,72.8
2019-05-10T11:12:52.849Z,72.1
2019-05-10T11:14:06.902Z,70.9
2019-05-10T11:15:21.013Z,70.1
2019-05-10T11:16:35.144Z,70.5
2019-05-10T11:17:49.298Z,68.6
2019-05-10T11:19:03.479Z,68.8
2019-05-10T11:20:17.545Z,68.5
2019-05-10T11:21:31.735Z,65.3
2019-05-10T11:22:45.917Z,65.5
2019-05-10T11:23:59.920Z,64.1
2019-05-10T11:25:17.053Z,63.3
2019-05-10T11:26:28.278Z,64.8
2019-05-10T11:27:42.774Z,65.2
2019-05-10T11:28:56.674Z,64.6
2019-05-10T11:30:10.545Z,63.4
2019-05-10T11:31:24.689Z,62.3
2019-05-10T11:32:38.775Z,63.5
2019-05-10T11:33:52.962Z,64.4
2019-05-10T11:35:07.173Z,66.8
2019-05-10T11:36:21.259Z,68.8
2019-05-10T11:37:35.215Z,69.3
2019-05-10T11:38:49.360Z,69.2
2019-05-10T11:40:03.741Z,68.4
2019-05-10T11:42:31.837Z,66.3
2019-05-10T11:43:45.895Z,65.6
2019-05-10T11:44:59.979Z,66.4
2019-05-10T11:47:28.239Z,64.6
2019-05-10T11:48:42.360Z,64.3
2019-05-10T11:49:56.475Z,64.8
2019-05-10T11:51:10.605Z,65.4
2019-05-10T11:52:24.713Z,60.3
2019-05-10T11:53:38.841Z,61
2019-05-10T11:54:53.150Z,63.3
2019-05-10T11:56:07.108Z,63.1
2019-05-10T11:57:21.206Z,63.4
2019-05-10T11:58:35.236Z,65.9
2019-05-10T11:59:49.363Z,65.2
2019-05-10T12:01:03.484Z,65.3
2019-05-10T12:02:17.632Z,64.9
2019-05-10T12:03:31.756Z,62.4
2019-05-10T12:04:45.849Z,64.4
2019-05-10T12:05:59.949Z,64.3
2019-05-10T12:07:14.080Z,63.9
2019-05-10T12:08:28.164Z,61.5
2019-05-10T12:09:42.530Z,61.3
2019-05-10T12:10:56.619Z,64.8
2019-05-10T12:12:10.629Z,61.1
2019-05-10T12:13:24.606Z,62.1
2019-05-10T12:14:38.757Z,60.8
2019-05-10T12:15:52.916Z,58.7
2019-05-10T12:17:06.954Z,58.3
2019-05-10T12:18:21.025Z,59.7
2019-05-10T12:19:36.268Z,62.4
2019-05-10T12:20:50.741Z,59.9
2019-05-10T12:22:05.169Z,60.2
2019-05-10T12:23:19.586Z,61.5
2019-05-10T12:24:31.587Z,59.9
2019-05-10T12:25:45.940Z,58.4
2019-05-10T12:26:59.865Z,61.3
2019-05-10T12:28:13.912Z,61.9
2019-05-10T12:29:27.972Z,62
2019-05-10T12:30:43.129Z,63.8
2019-05-10T12:31:56.225Z,62.3
2019-05-10T12:34:24.418Z,63.7
2019-05-10T12:35:38.703Z,65.2
2019-05-10T12:36:57.708Z,65.4
2019-05-10T12:38:06.843Z,64.4
2019-05-10T12:39:20.937Z,66
2019-05-10T12:40:35.218Z,66.2
2019-05-10T12:41:49.171Z,67.2
2019-05-10T12:43:03.304Z,67.6
2019-05-10T12:44:17.875Z,65.4
2019-05-10T12:45:31.637Z,66.2
2019-05-10T12:46:45.732Z,65.4
2019-05-10T12:47:59.876Z,66.3
2019-05-10T12:49:14.060Z,67.3
2019-05-10T12:50:28.225Z,66.2
2019-05-10T12:51:42.264Z,67.2
2019-05-10T12:52:57.518Z,66.4
2019-05-10T12:54:11.183Z,65.7
2019-05-10T12:55:24.899Z,63.6
2019-05-10T12:56:38.799Z,65.1
2019-05-10T12:57:53.063Z,66.5
2019-05-10T12:59:07.042Z,66.9
2019-05-10T13:00:21.294Z,63.4
2019-05-10T13:01:40.443Z,64.1
2019-05-10T13:02:49.445Z,63.5
2019-05-10T13:04:08.126Z,63.1
2019-05-10T13:05:21.863Z,62.1
2019-05-10T13:06:31.843Z,63.2
2019-05-10T13:07:46.125Z,62.1
2019-05-10T13:09:00.097Z,64.3
2019-05-10T13:11:28.378Z,64.9
2019-05-10T13:12:42.446Z,65.4
2019-05-10T13:13:56.526Z,64.1
2019-05-10T13:15:10.665Z,64.5
2019-05-10T13:16:24.788Z,66.2
2019-05-10T13:17:38.952Z,65.8
2019-05-10T13:18:53.156Z,66.3
2019-05-10T13:20:07.277Z,66.7
2019-05-10T13:21:21.329Z,67.6
2019-05-10T13:22:35.488Z,66.8
2019-05-10T13:23:49.671Z,65.6
2019-05-10T13:25:05.886Z,66.8
2019-05-10T13:26:17.941Z,66.8
2019-05-10T13:27:32.097Z,67
2019-05-10T13:28:46.210Z,68.3
2019-05-10T13:30:00.507Z,66.8
2019-05-10T13:31:14.408Z,63.8
2019-05-10T13:32:28.556Z,64.6
2019-05-10T13:33:42.801Z,65.3
2019-05-10T13:34:56.966Z,65
2019-05-10T13:36:10.960Z,64.5
2019-05-10T13:37:25.097Z,60.2
2019-05-10T13:38:39.163Z,58.9
2019-05-10T13:39:53.632Z,58.1
2019-05-10T13:41:07.394Z,57.6
2019-05-10T13:42:21.601Z,55.4
2019-05-10T13:43:35.583Z,55.3
2019-05-10T13:44:49.685Z,56.1
2019-05-10T13:46:03.857Z,56.1
2019-05-10T13:47:17.887Z,56.5
2019-05-10T13:48:31.998Z,56.2
2019-05-10T13:49:46.088Z,55.5
2019-05-10T13:51:00.193Z,55.6
2019-05-10T13:52:14.277Z,55.8
2019-05-10T13:53:28.438Z,56.1
2019-05-10T13:54:42.638Z,55.8
2019-05-10T13:55:56.549Z,56.5
2019-05-10T13:57:10.634Z,56.4
2019-05-10T13:58:24.815Z,59.2
2019-05-10T13:59:38.827Z,57.9
2019-05-10T14:00:52.960Z,58.1
2019-05-10T14:02:07.880Z,59.8
2019-05-10T14:03:21.139Z,56.8
2019-05-10T14:04:35.316Z,56.6
2019-05-10T14:05:49.398Z,56.2
2019-05-10T14:07:03.529Z,57.6
2019-05-10T14:08:17.714Z,56
2019-05-10T14:09:31.921Z,58
2019-05-10T14:10:45.959Z,57.9
2019-05-10T14:11:59.928Z,56.4
2019-05-10T14:13:15.269Z,55.1
2019-05-10T14:14:28.502Z,55.1
2019-05-10T14:15:42.253Z,55.4
2019-05-10T14:16:56.574Z,53
2019-05-10T14:18:10.568Z,52.9
2019-05-10T14:19:24.645Z,55.6
2019-05-10T14:20:38.833Z,51.1
2019-05-10T14:21:52.836Z,51.8
2019-05-10T14:23:06.895Z,53.4
2019-05-10T14:24:20.989Z,54.8
2019-05-10T14:25:35.097Z,54.8
2019-05-10T14:26:49.153Z,57.7
2019-05-10T14:28:03.255Z,60
2019-05-10T14:29:17.324Z,57.7
2019-05-10T14:30:31.403Z,61.7
2019-05-10T14:31:45.643Z,57.7
2019-05-10T14:32:59.608Z,58.4
2019-05-10T14:34:13.756Z,60.6
2019-05-10T14:35:27.810Z,60.2
2019-05-10T14:36:42.005Z,60.3
2019-05-10T14:37:56.052Z,59.9
2019-05-10T14:39:10.185Z,59.9
2019-05-10T14:40:25.734Z,60.2
2019-05-10T14:41:38.490Z,57.9
2019-05-10T14:42:52.726Z,57.3
2019-05-10T14:44:06.754Z,56.5
2019-05-10T14:45:20.905Z,55.9
2019-05-10T14:46:34.816Z,58.5
2019-05-10T14:47:49.015Z,58.1
2019-05-10T14:49:03.043Z,56.2
2019-05-10T14:50:17.213Z,56.7
2019-05-10T14:51:31.247Z,56.4
2019-05-10T14:52:45.337Z,56.4
2019-05-10T14:53:59.442Z,58.1
2019-05-10T14:55:13.654Z,53.7
2019-05-10T14:56:27.645Z,53.2
2019-05-10T14:57:41.708Z,51.2
2019-05-10T14:58:55.854Z,51.1
2019-05-10T15:00:10.005Z,48
2019-05-10T15:01:23.980Z,48.1
2019-05-10T15:02:38.105Z,52.4
2019-05-10T15:03:52.150Z,53.6
2019-05-10T15:05:06.307Z,54.5
2019-05-10T15:06:20.319Z,48.3
2019-05-10T15:07:34.804Z,52.8
2019-05-10T15:08:48.591Z,54.8
2019-05-10T15:10:02.718Z,56.2
2019-05-10T15:11:16.787Z,54
2019-05-10T15:12:30.811Z,53.5
2019-05-10T15:13:44.918Z,53.7
2019-05-10T15:14:59.048Z,54.3
2019-05-10T15:16:13.253Z,55.2
2019-05-10T15:17:27.230Z,57.9
2019-05-10T15:18:41.326Z,57.6
2019-05-10T15:19:55.514Z,57.9
2019-05-10T15:21:09.575Z,57.9
2019-05-10T15:22:23.729Z,58
2019-05-10T15:23:38.082Z,58.2
2019-05-10T15:24:52.104Z,59.3
2019-05-10T15:26:05.997Z,58.2
2019-05-10T15:27:20.112Z,58.2
2019-05-10T15:28:34.367Z,58.6
2019-05-10T15:29:48.477Z,58.2
2019-05-10T15:31:02.503Z,57.9
2019-05-10T15:32:16.783Z,58.7
2019-05-10T15:33:30.755Z,59.1
2019-05-10T15:34:44.935Z,58.2
2019-05-10T15:35:59.059Z,58.9
2019-05-10T15:37:13.201Z,58
2019-05-10T15:38:27.273Z,59.3
2019-05-10T15:39:41.443Z,58.4
2019-05-10T15:40:55.699Z,58.4
2019-05-10T15:42:09.681Z,58.2
2019-05-10T15:43:23.836Z,57.5
2019-05-10T15:44:38.002Z,58
2019-05-10T15:45:52.557Z,59.2
2019-05-10T15:47:06.199Z,59.3
2019-05-10T15:48:20.369Z,59.4
2019-05-10T15:49:34.506Z,60.5
2019-05-10T15:50:48.654Z,61.9
2019-05-10T15:52:02.723Z,62.3
2019-05-10T15:53:16.941Z,63.4
2019-05-10T15:54:31.008Z,64.1
2019-05-10T15:55:45.261Z,64.6
2019-05-10T15:56:59.329Z,65.2
2019-05-10T15:58:13.378Z,64.5
2019-05-10T15:59:27.597Z,65.8
2019-05-10T16:00:41.822Z,64.7
2019-05-10T16:01:55.805Z,65.3
2019-05-10T16:03:09.947Z,65.3
2019-05-10T16:04:24.133Z,65.8
2019-05-10T16:05:38.272Z,65.9
2019-05-10T16:06:52.853Z,64.9
2019-05-10T16:08:06.671Z,66.3
2019-05-10T16:09:20.801Z,66.3
2019-05-10T16:10:35.024Z,66.5
2019-05-10T16:13:03.197Z,65.9
2019-05-10T16:14:17.381Z,66.8
2019-05-10T16:15:31.593Z,67
2019-05-10T16:16:45.619Z,66.7
2019-05-10T16:17:59.796Z,65.8
2019-05-10T16:19:14.095Z,65.6
2019-05-10T16:20:28.104Z,67.4
2019-05-10T16:21:42.451Z,67.9
2019-05-10T16:22:56.651Z,66.1
2019-05-10T16:24:11.384Z,66.4
2019-05-10T16:25:24.736Z,66.8
2019-05-10T16:26:38.930Z,67.7
2019-05-10T16:27:53.039Z,68.6
2019-05-10T16:29:07.191Z,67.2
2019-05-10T16:30:21.565Z,69.9
2019-05-10T16:31:35.498Z,67.9
2019-05-10T16:32:49.658Z,68.4
2019-05-10T16:34:04.048Z,67.7
2019-05-10T16:35:17.930Z,68.5
2019-05-10T16:36:32.087Z,69
2019-05-10T16:37:46.257Z,70.7
2019-05-10T16:39:00.520Z,71.9
2019-05-10T16:40:15.011Z,71.4
2019-05-10T16:41:28.941Z,73
2019-05-10T16:42:42.914Z,69.3
2019-05-10T16:43:57.173Z,69.8
2019-05-10T16:45:11.204Z,69
2019-05-10T16:46:25.482Z,71.7
2019-05-10T16:47:39.527Z,67.8
2019-05-10T16:50:07.903Z,67.7
2019-05-10T16:51:22.277Z,67.5
2019-05-10T16:52:36.221Z,69.1
2019-05-10T16:53:50.294Z,70.8
2019-05-10T16:55:04.446Z,70.5
2019-05-10T16:56:18.676Z,68.8
2019-05-10T16:57:32.730Z,69.3
2019-05-10T16:58:46.871Z,65.7
2019-05-10T17:00:01.033Z,67.1
2019-05-10T17:02:29.305Z,64.4
2019-05-10T17:03:43.445Z,65.7